NCAR-RAP Real-Time Weather Data

Output produced by METARs form (30 April 2017  03:06 UTC)
found at http://weather.rap.ucar.edu/surface/
 
Conditions at: KLOU observed 30 April 2017  02:53 UTC
Temperature: 25.6°C (78°F)
Dewpoint: 20.6°C (69°F) [RH = 74%]
Pressure (altimeter): 29.94 inches Hg (1014.0 mb)
[Sea-level pressure: 1013.3 mb]
Winds: calm
Visibility: 10 or more miles (16+ km)
Ceiling: at least 12,000 feet AGL
Clouds: sky clear below 12,000 feet AGL
Present Weather: automated observation with no human augmentation;
there may or may not be significant weather present at this time
KLOU 300253Z AUTO 00000KT 10SM CLR 26/21 A2994 RMK AO2 SLP133 T02560206 51015